Time;durP1;ratioP1;P1;durP2;ratioP2;P2;SDS_P1;SDS_P2;PMS_P1;PMS_P2;Temp;Humidity;BMP_temperature;BMP_pressure;BME280_temperature;BME280_humidity;BME280_pressure;Samples;Min_cycle;Max_cycle;Signal;HPM_P1;HPM_P2
2021/12/09 00:00:43;;;;;;;16.97;7.93;;;4.30;99.90;;;;;;5031327;28;20824;-47
2021/12/09 00:03:11;;;;;;;15.13;8.93;;;4.20;99.90;;;;;;5030331;28;20512;-46
2021/12/09 00:05:38;;;;;;;19.20;10.80;;;4.10;99.90;;;;;;5022780;28;20485;-47
2021/12/09 00:08:06;;;;;;;26.10;9.97;;;4.00;99.90;;;;;;5039834;28;20488;-46
2021/12/09 00:10:33;;;;;;;21.23;11.33;;;4.00;99.90;;;;;;5041388;28;20538;-47
2021/12/09 00:13:00;;;;;;;21.10;8.67;;;3.90;99.90;;;;;;5060193;28;20885;-46
2021/12/09 00:15:28;;;;;;;18.43;9.50;;;4.00;99.90;;;;;;5065817;28;20969;-46
2021/12/09 00:17:55;;;;;;;18.27;9.07;;;4.00;99.90;;;;;;5073985;28;21003;-47
2021/12/09 00:20:22;;;;;;;35.87;9.43;;;4.10;99.90;;;;;;5059580;28;20495;-46
2021/12/09 00:22:49;;;;;;;15.77;8.10;;;4.20;99.90;;;;;;5047863;28;21023;-46
2021/12/09 00:25:16;;;;;;;19.77;8.60;;;4.30;99.90;;;;;;5070373;28;20480;-46
2021/12/09 00:27:43;;;;;;;18.03;8.03;;;4.40;99.90;;;;;;5058460;28;20484;-47
2021/12/09 00:30:12;;;;;;;12.23;7.20;;;4.40;99.90;;;;;;5060057;28;20481;-46
2021/12/09 00:32:41;;;;;;;11.63;7.27;;;4.40;99.90;;;;;;5058376;28;20491;-46
2021/12/09 00:35:13;;;;;;;16.23;7.20;;;4.40;99.90;;;;;;5040702;28;20472;-46
2021/12/09 00:37:50;;;;;;;16.30;7.57;;;4.30;99.90;;;;;;5062224;27;20469;-47
2021/12/09 00:40:17;;;;;;;15.93;7.50;;;4.30;99.90;;;;;;5040874;28;20476;-46
2021/12/09 00:42:44;;;;;;;16.47;7.10;;;4.20;99.90;;;;;;5042002;28;20484;-46
2021/12/09 00:45:11;;;;;;;13.20;7.17;;;4.20;99.90;;;;;;5039677;28;20824;-46
2021/12/09 00:47:37;;;;;;;13.10;6.17;;;4.20;99.90;;;;;;5038755;28;20494;-47
2021/12/09 00:50:07;;;;;;;10.43;6.10;;;4.20;99.90;;;;;;5063299;28;20486;-47
2021/12/09 00:52:34;;;;;;;19.40;7.00;;;4.20;99.90;;;;;;5059823;28;21083;-47
2021/12/09 00:55:01;;;;;;;19.27;6.80;;;4.30;99.90;;;;;;5046395;28;20487;-48
2021/12/09 00:57:28;;;;;;;14.40;6.67;;;4.30;99.90;;;;;;5038339;28;20468;-47
2021/12/09 00:59:55;;;;;;;13.07;6.37;;;4.30;99.90;;;;;;5032932;28;20527;-46
2021/12/09 01:02:22;;;;;;;23.33;6.90;;;4.40;99.90;;;;;;5033459;28;20496;-46
2021/12/09 01:04:48;;;;;;;13.83;6.70;;;4.40;99.90;;;;;;5037363;28;20499;-46
2021/12/09 01:07:17;;;;;;;11.07;6.67;;;4.40;99.90;;;;;;5032762;28;20476;-46
2021/12/09 01:09:44;;;;;;;11.97;6.30;;;4.40;99.90;;;;;;5039778;28;20481;-46
2021/12/09 01:12:11;;;;;;;12.87;6.50;;;4.30;99.90;;;;;;5048789;28;20464;-46
2021/12/09 01:14:39;;;;;;;15.70;6.20;;;4.20;99.90;;;;;;5047468;28;20484;-46
2021/12/09 01:17:08;;;;;;;10.47;6.10;;;4.20;99.90;;;;;;5041861;28;20503;-47
2021/12/09 01:19:35;;;;;;;16.10;7.33;;;4.30;99.90;;;;;;5042264;28;21116;-47
2021/12/09 01:22:02;;;;;;;13.03;6.60;;;4.30;99.90;;;;;;5063106;28;20486;-47
2021/12/09 01:24:31;;;;;;;11.97;6.77;;;4.20;99.90;;;;;;5041582;28;20493;-46
2021/12/09 01:26:58;;;;;;;13.00;6.40;;;4.20;99.90;;;;;;5037685;28;20483;-46
2021/12/09 01:29:33;;;;;;;15.90;6.73;;;4.30;99.90;;;;;;5041427;28;20502;-46
2021/12/09 01:32:03;;;;;;;22.47;6.70;;;4.30;99.90;;;;;;5055525;28;20590;-46
2021/12/09 01:34:30;;;;;;;8.97;6.10;;;4.30;99.90;;;;;;5040658;28;20485;-46
2021/12/09 01:36:57;;;;;;;20.43;5.70;;;4.40;99.90;;;;;;5041101;28;20484;-46
2021/12/09 01:39:27;;;;;;;11.77;6.70;;;4.40;99.90;;;;;;5038384;28;20487;-46
2021/12/09 01:41:55;;;;;;;13.07;6.63;;;4.50;99.80;;;;;;5044820;28;20484;-46
2021/12/09 01:44:22;;;;;;;12.37;5.90;;;4.50;99.70;;;;;;5032774;28;21006;-46
2021/12/09 01:46:49;;;;;;;20.40;6.50;;;4.40;99.40;;;;;;5033439;28;20492;-47
2021/12/09 01:49:16;;;;;;;13.40;6.70;;;4.40;99.10;;;;;;5034054;28;20485;-46
2021/12/09 01:51:45;;;;;;;13.13;5.83;;;4.20;99.50;;;;;;5041662;28;20494;-46
2021/12/09 01:54:12;;;;;;;13.60;6.10;;;4.20;99.60;;;;;;5031491;28;20856;-46
2021/12/09 01:56:39;;;;;;;9.30;5.80;;;4.20;99.60;;;;;;5039776;28;20499;-47
2021/12/09 01:59:08;;;;;;;13.57;6.40;;;4.20;99.60;;;;;;5039546;28;20483;-46
2021/12/09 02:01:36;;;;;;;13.43;5.70;;;4.10;99.10;;;;;;5040520;28;20507;-46
2021/12/09 02:04:06;;;;;;;13.53;6.60;;;4.00;99.40;;;;;;5033772;28;20493;-47
2021/12/09 02:06:34;;;;;;;14.27;5.80;;;3.80;99.30;;;;;;5050375;28;20498;-46
2021/12/09 02:09:00;;;;;;;10.10;5.83;;;3.70;99.90;;;;;;5037121;28;20517;-46
2021/12/09 02:11:27;;;;;;;11.73;6.80;;;3.70;99.90;;;;;;5034137;28;20974;-46
2021/12/09 02:13:57;;;;;;;18.80;6.73;;;3.70;99.90;;;;;;5049321;28;20474;-46
2021/12/09 02:16:25;;;;;;;15.37;7.90;;;3.80;99.90;;;;;;5049259;28;20491;-46
2021/12/09 02:18:52;;;;;;;19.93;8.00;;;3.70;99.50;;;;;;5082050;28;20466;-46
2021/12/09 02:21:22;;;;;;;18.73;8.00;;;3.60;99.90;;;;;;5068498;28;20489;-46
2021/12/09 02:23:53;;;;;;;12.13;7.43;;;3.60;99.90;;;;;;5075250;28;20481;-46
2021/12/09 02:26:24;;;;;;;13.70;7.93;;;3.70;99.90;;;;;;5078077;28;20485;-46
2021/12/09 02:28:52;;;;;;;13.80;7.53;;;3.70;99.90;;;;;;5077277;28;20491;-46
2021/12/09 02:31:19;;;;;;;15.70;7.40;;;3.60;99.90;;;;;;5078815;28;20478;-46
2021/12/09 02:33:45;;;;;;;10.33;6.47;;;3.60;99.90;;;;;;5053066;28;20488;-47
2021/12/09 02:36:12;;;;;;;19.87;6.20;;;3.70;99.90;;;;;;5045488;28;20482;-46
2021/12/09 02:38:44;;;;;;;38.57;9.30;;;3.70;99.80;;;;;;5054348;28;20489;-48
2021/12/09 02:44:32;;;;;;;12.70;5.40;;;3.40;99.60;;;;;;5048069;27;21043;-46
2021/12/09 02:47:00;;;;;;;12.07;7.83;;;3.40;99.90;;;;;;5060121;28;20491;-46
2021/12/09 02:49:29;;;;;;;8.43;5.93;;;3.50;99.90;;;;;;5059507;28;20574;-46
2021/12/09 02:51:59;;;;;;;14.03;6.90;;;3.50;99.90;;;;;;5071301;28;20515;-47
2021/12/09 02:54:28;;;;;;;14.03;7.87;;;3.50;99.90;;;;;;5064026;28;20896;-46
2021/12/09 02:56:58;;;;;;;12.23;7.40;;;3.60;99.90;;;;;;5081947;28;20485;-47
2021/12/09 02:59:26;;;;;;;11.20;6.30;;;3.60;99.90;;;;;;5057630;28;20521;-46
2021/12/09 03:01:57;;;;;;;12.73;6.90;;;3.70;99.90;;;;;;5062955;28;20541;-47
2021/12/09 03:04:26;;;;;;;12.30;7.40;;;3.80;99.90;;;;;;5072384;28;20479;-46
2021/12/09 03:06:55;;;;;;;16.03;7.63;;;3.90;99.90;;;;;;5060055;28;20486;-47
2021/12/09 03:09:22;;;;;;;9.20;6.37;;;3.90;99.90;;;;;;5075573;28;20478;-46
2021/12/09 03:11:55;;;;;;;18.47;7.00;;;4.00;99.90;;;;;;5058205;28;20494;-46
2021/12/09 03:14:23;;;;;;;19.40;8.07;;;4.20;99.90;;;;;;5086839;28;20536;-47
2021/12/09 03:16:50;;;;;;;11.60;5.90;;;4.20;99.90;;;;;;5058428;28;20888;-47
2021/12/09 03:19:17;;;;;;;13.53;7.03;;;4.30;99.90;;;;;;5055202;28;20494;-46
2021/12/09 03:21:48;;;;;;;13.10;7.10;;;4.40;99.90;;;;;;5058669;28;20482;-46
2021/12/09 03:24:18;;;;;;;19.83;8.17;;;4.40;99.80;;;;;;5060598;28;20475;-46
2021/12/09 03:26:49;;;;;;;15.73;8.73;;;4.50;99.80;;;;;;5060142;28;20482;-46
2021/12/09 03:29:19;;;;;;;17.93;10.17;;;4.40;99.90;;;;;;5054759;28;20512;-47
2021/12/09 03:31:49;;;;;;;16.57;9.80;;;4.40;99.50;;;;;;5085190;28;20482;-48
2021/12/09 03:34:18;;;;;;;17.47;9.73;;;4.30;99.80;;;;;;5057632;28;20471;-46
2021/12/09 03:36:47;;;;;;;34.37;10.70;;;4.30;99.70;;;;;;5056861;28;20497;-47
2021/12/09 03:39:18;;;;;;;18.60;9.97;;;4.30;99.90;;;;;;5077807;28;20465;-46
2021/12/09 03:41:47;;;;;;;19.93;10.97;;;4.40;99.90;;;;;;5058923;28;20570;-46
2021/12/09 03:44:14;;;;;;;19.77;11.10;;;4.50;99.90;;;;;;5069407;28;20481;-47
2021/12/09 03:46:43;;;;;;;20.53;10.63;;;4.40;99.90;;;;;;5060797;28;20487;-47
2021/12/09 03:49:10;;;;;;;25.07;12.10;;;4.40;99.90;;;;;;5058717;28;20483;-46
2021/12/09 03:51:37;;;;;;;23.83;13.03;;;4.40;99.90;;;;;;5055809;28;20494;-46
2021/12/09 03:54:05;;;;;;;22.33;11.60;;;4.20;99.90;;;;;;5057837;28;20488;-46
2021/12/09 03:56:32;;;;;;;31.50;12.40;;;4.20;99.90;;;;;;5056338;28;20551;-46
2021/12/09 03:58:59;;;;;;;29.83;12.07;;;4.30;99.90;;;;;;5061279;28;20479;-46
2021/12/09 04:04:49;;;;;;;22.03;12.50;;;4.30;99.90;;;;;;5016199;28;21092;-46
2021/12/09 04:07:16;;;;;;;27.20;13.50;;;4.30;99.90;;;;;;5052214;28;20988;-46
2021/12/09 04:09:43;;;;;;;26.97;12.70;;;4.30;99.90;;;;;;5055349;28;20511;-47
2021/12/09 04:12:11;;;;;;;27.40;13.97;;;4.40;99.90;;;;;;5054790;28;20533;-47
2021/12/09 04:14:38;;;;;;;25.60;13.90;;;4.50;99.90;;;;;;5064062;28;20579;-46
2021/12/09 04:17:05;;;;;;;21.50;10.73;;;4.50;99.90;;;;;;5052782;28;20458;-47
2021/12/09 04:19:32;;;;;;;23.03;12.80;;;4.60;99.90;;;;;;5063441;28;20482;-47
2021/12/09 04:22:00;;;;;;;26.53;11.90;;;4.70;99.90;;;;;;5064569;28;20483;-46
2021/12/09 04:24:27;;;;;;;16.93;9.90;;;4.70;99.90;;;;;;5064665;28;20475;-47
2021/12/09 04:26:53;;;;;;;25.73;11.33;;;4.80;99.90;;;;;;5063770;28;20479;-46
2021/12/09 04:29:21;;;;;;;22.50;11.67;;;4.80;99.90;;;;;;5063791;28;20479;-46
2021/12/09 04:31:51;;;;;;;23.20;12.80;;;4.90;99.90;;;;;;5061521;28;20541;-46
2021/12/09 04:34:18;;;;;;;27.60;13.60;;;4.90;99.90;;;;;;5063018;28;20479;-46
2021/12/09 04:36:45;;;;;;;28.20;14.37;;;4.80;99.70;;;;;;5060714;28;20537;-46
2021/12/09 04:39:13;;;;;;;31.87;13.90;;;4.70;99.80;;;;;;5049933;28;20502;-46
2021/12/09 04:41:40;;;;;;;32.10;14.67;;;4.50;99.90;;;;;;5041077;28;20490;-53
2021/12/09 04:44:08;;;;;;;26.30;13.60;;;4.50;99.90;;;;;;5044984;28;20487;-46
2021/12/09 04:46:35;;;;;;;32.90;16.00;;;4.40;99.90;;;;;;5043253;28;21043;-46
2021/12/09 04:49:03;;;;;;;24.67;13.47;;;4.30;99.90;;;;;;5043157;28;20480;-47
2021/12/09 04:51:30;;;;;;;32.90;15.37;;;4.30;99.90;;;;;;5041379;28;20488;-46
2021/12/09 04:53:57;;;;;;;23.43;12.97;;;4.20;99.90;;;;;;5057486;28;20901;-47
2021/12/09 04:56:25;;;;;;;26.30;12.23;;;4.30;99.90;;;;;;5063725;28;20484;-46
2021/12/09 04:58:52;;;;;;;23.80;13.17;;;4.40;99.90;;;;;;5063720;28;20483;-47
2021/12/09 05:01:20;;;;;;;28.03;13.27;;;4.40;99.90;;;;;;5054699;28;20486;-46
2021/12/09 05:03:48;;;;;;;32.17;16.03;;;4.40;99.90;;;;;;5059996;28;20480;-46
2021/12/09 05:06:16;;;;;;;32.57;15.87;;;4.40;99.90;;;;;;5053844;28;20467;-47
2021/12/09 05:08:47;;;;;;;39.40;16.27;;;4.30;99.90;;;;;;5077973;28;20535;-49
2021/12/09 05:11:27;;;;;;;36.43;17.37;;;4.20;99.90;;;;;;5070411;28;20580;-47
2021/12/09 05:13:56;;;;;;;37.17;18.47;;;4.20;99.90;;;;;;5064031;28;21295;-47
2021/12/09 05:16:23;;;;;;;25.77;14.43;;;4.10;99.90;;;;;;5063106;28;20717;-46
2021/12/09 05:18:56;;;;;;;33.73;13.73;;;4.10;99.90;;;;;;5062027;28;20491;-51
2021/12/09 05:21:22;;;;;;;29.10;14.77;;;4.10;99.90;;;;;;5060894;28;20949;-47
2021/12/09 05:23:49;;;;;;;39.43;12.77;;;4.20;99.90;;;;;;5053825;28;20490;-46
2021/12/09 05:26:19;;;;;;;38.63;15.17;;;4.30;99.90;;;;;;5055394;28;21007;-47
2021/12/09 05:28:52;;;;;;;33.43;16.40;;;4.30;99.90;;;;;;5040088;28;20496;-48
2021/12/09 05:34:05;;;;;;;54.13;19.40;;;4.20;99.90;;;;;;5038516;28;20490;-47
2021/12/09 05:36:31;;;;;;;37.30;17.60;;;4.30;99.90;;;;;;5051503;28;20840;-47
2021/12/09 05:38:58;;;;;;;34.00;16.43;;;4.20;99.90;;;;;;5043444;28;20484;-46
2021/12/09 05:41:25;;;;;;;34.30;15.10;;;4.30;99.90;;;;;;5043243;28;21054;-47
2021/12/09 05:43:52;;;;;;;29.47;13.83;;;4.30;99.90;;;;;;5038729;28;21169;-47
2021/12/09 05:46:22;;;;;;;35.70;12.80;;;4.30;99.90;;;;;;5033497;28;20518;-47
2021/12/09 05:48:50;;;;;;;16.80;9.73;;;4.30;99.90;;;;;;5022882;28;21229;-47
2021/12/09 05:51:17;;;;;;;15.60;9.03;;;4.30;99.90;;;;;;5031337;28;20519;-47
2021/12/09 05:53:43;;;;;;;17.37;9.53;;;4.30;99.90;;;;;;5028535;28;20500;-47
2021/12/09 05:56:10;;;;;;;23.97;11.33;;;4.20;99.90;;;;;;5059616;28;20482;-46
2021/12/09 05:58:36;;;;;;;22.87;11.47;;;4.20;99.90;;;;;;5062263;28;20491;-47
2021/12/09 06:01:03;;;;;;;19.23;10.70;;;4.20;99.90;;;;;;5062468;28;20494;-47
2021/12/09 06:03:31;;;;;;;28.33;8.53;;;4.20;99.90;;;;;;5056940;28;20542;-46
2021/12/09 06:05:58;;;;;;;20.67;10.00;;;4.10;99.90;;;;;;5060051;28;20483;-47
2021/12/09 06:08:25;;;;;;;22.93;9.97;;;4.20;99.90;;;;;;5033441;28;20487;-47
2021/12/09 06:10:52;;;;;;;20.73;10.03;;;4.10;99.90;;;;;;5033665;28;20480;-48
2021/12/09 06:13:19;;;;;;;27.70;6.73;;;4.10;99.90;;;;;;5041004;28;20564;-46
2021/12/09 06:15:46;;;;;;;29.73;11.07;;;4.10;99.90;;;;;;5038740;28;20491;-47
2021/12/09 06:18:13;;;;;;;20.33;10.10;;;4.10;99.90;;;;;;5037667;28;20540;-47
2021/12/09 06:20:41;;;;;;;18.90;8.93;;;4.10;99.90;;;;;;5065577;28;20484;-47
2021/12/09 06:23:07;;;;;;;13.70;8.07;;;4.10;99.90;;;;;;5040693;28;20974;-46
2021/12/09 06:25:34;;;;;;;16.93;8.40;;;4.00;99.90;;;;;;5029976;28;20480;-46
2021/12/09 06:28:01;;;;;;;17.20;7.27;;;4.00;99.90;;;;;;5032466;28;20930;-47
2021/12/09 06:30:28;;;;;;;20.10;9.17;;;4.00;99.90;;;;;;5048952;28;20478;-46
2021/12/09 06:32:55;;;;;;;14.27;8.00;;;4.00;99.90;;;;;;5064090;28;20967;-46
2021/12/09 06:35:22;;;;;;;19.63;7.97;;;3.90;99.90;;;;;;5058564;28;20807;-47
2021/12/09 06:37:50;;;;;;;19.20;10.10;;;3.90;99.90;;;;;;5055317;28;20560;-47
2021/12/09 06:40:19;;;;;;;23.73;10.17;;;3.90;99.90;;;;;;5080915;28;20532;-47
2021/12/09 06:42:47;;;;;;;23.87;11.27;;;4.00;99.90;;;;;;5050063;28;21190;-47
2021/12/09 06:45:16;;;;;;;16.20;7.80;;;4.00;99.90;;;;;;5081016;28;20884;-46
2021/12/09 06:47:45;;;;;;;10.60;7.07;;;3.90;99.90;;;;;;5064647;28;20548;-46
2021/12/09 06:50:14;;;;;;;16.73;10.20;;;3.90;99.90;;;;;;5059154;28;20483;-47
2021/12/09 06:52:41;;;;;;;16.83;6.47;;;3.90;99.90;;;;;;5057967;28;20486;-46
2021/12/09 06:55:13;;;;;;;17.03;8.30;;;3.80;99.90;;;;;;5060621;28;20483;-48
2021/12/09 06:57:42;;;;;;;18.23;8.10;;;3.80;99.90;;;;;;5058363;28;20486;-46
2021/12/09 07:00:11;;;;;;;13.13;7.57;;;3.80;99.90;;;;;;5057103;28;20569;-47
2021/12/09 07:02:38;;;;;;;18.20;10.50;;;3.80;99.90;;;;;;5058067;28;20478;-46
2021/12/09 07:05:07;;;;;;;18.67;9.50;;;3.80;99.90;;;;;;5070154;28;20878;-46
2021/12/09 07:07:33;;;;;;;22.93;9.97;;;3.70;99.90;;;;;;5059778;28;20477;-47
2021/12/09 07:10:00;;;;;;;26.30;8.73;;;3.80;99.90;;;;;;5046778;28;20492;-47
2021/12/09 07:12:29;;;;;;;10.80;6.73;;;3.70;99.90;;;;;;5056749;28;20896;-47
2021/12/09 07:14:55;;;;;;;15.60;8.40;;;3.80;99.90;;;;;;5077310;28;20475;-47
2021/12/09 07:17:23;;;;;;;20.50;10.37;;;3.70;99.90;;;;;;5068341;28;20529;-47
2021/12/09 07:19:50;;;;;;;19.03;10.30;;;3.80;99.90;;;;;;5043192;28;20938;-46
2021/12/09 07:22:17;;;;;;;28.43;14.20;;;3.70;99.90;;;;;;5040852;28;20551;-47
2021/12/09 07:24:43;;;;;;;21.13;10.60;;;3.70;99.90;;;;;;5039280;28;20484;-47
2021/12/09 07:27:10;;;;;;;13.30;7.40;;;3.70;99.90;;;;;;5035999;28;20483;-46
2021/12/09 07:29:38;;;;;;;15.57;8.50;;;3.70;99.90;;;;;;5037892;28;20495;-47
2021/12/09 07:32:06;;;;;;;15.83;6.73;;;3.60;99.90;;;;;;5037179;28;21075;-46
2021/12/09 07:34:32;;;;;;;15.53;8.87;;;3.60;99.90;;;;;;5074146;28;20519;-47
2021/12/09 07:37:03;;;;;;;19.50;10.43;;;3.60;99.90;;;;;;5071787;28;20483;-47
2021/12/09 07:39:30;;;;;;;25.70;10.40;;;3.60;99.90;;;;;;5058922;28;20485;-46
2021/12/09 07:42:15;;;;;;;13.10;6.87;;;3.60;99.90;;;;;;5057251;28;20498;-48
2021/12/09 07:44:43;;;;;;;19.37;9.73;;;3.60;99.90;;;;;;5035449;28;20475;-46
2021/12/09 07:47:10;;;;;;;11.33;8.30;;;3.60;99.90;;;;;;5054336;28;20479;-47
2021/12/09 07:49:37;;;;;;;8.43;7.00;;;3.60;99.90;;;;;;5043261;28;20831;-47
2021/12/09 07:52:05;;;;;;;17.20;8.33;;;3.70;99.90;;;;;;5055038;28;20538;-46
2021/12/09 07:54:32;;;;;;;23.23;9.87;;;3.70;99.90;;;;;;5042397;28;20997;-47
2021/12/09 07:56:58;;;;;;;26.43;9.90;;;3.70;99.90;;;;;;5049202;28;20491;-47
2021/12/09 07:59:25;;;;;;;18.60;9.90;;;3.70;99.90;;;;;;5053377;28;20952;-47
2021/12/09 08:01:53;;;;;;;23.37;10.27;;;3.70;99.90;;;;;;5049587;28;20721;-47
2021/12/09 08:04:21;;;;;;;20.73;11.07;;;3.80;99.90;;;;;;5048774;28;20934;-48
2021/12/09 08:06:47;;;;;;;15.50;9.77;;;3.70;99.90;;;;;;5057661;28;20486;-47
2021/12/09 08:09:14;;;;;;;12.77;7.40;;;3.80;99.90;;;;;;5044279;28;20486;-47
2021/12/09 08:11:42;;;;;;;15.13;8.40;;;3.80;99.90;;;;;;5045077;28;20498;-46
2021/12/09 08:14:11;;;;;;;12.37;8.93;;;3.80;99.90;;;;;;5043195;28;20483;-47
2021/12/09 08:16:39;;;;;;;18.07;11.73;;;3.80;99.90;;;;;;5048589;28;20558;-47
2021/12/09 08:19:08;;;;;;;25.57;15.00;;;3.80;99.90;;;;;;5048901;28;20992;-47
2021/12/09 08:21:37;;;;;;;16.70;10.07;;;3.60;99.90;;;;;;5051120;28;20482;-47
2021/12/09 08:24:05;;;;;;;24.00;13.53;;;3.60;99.90;;;;;;5048164;28;20891;-47
2021/12/09 08:26:32;;;;;;;25.60;12.93;;;3.60;99.90;;;;;;5055833;28;20549;-47
2021/12/09 08:28:59;;;;;;;14.40;6.47;;;3.70;99.90;;;;;;5056868;28;21009;-47
2021/12/09 08:31:27;;;;;;;22.20;10.97;;;3.70;99.90;;;;;;5048339;28;20479;-47
2021/12/09 08:33:54;;;;;;;29.90;13.40;;;3.80;99.90;;;;;;5052520;28;20563;-47
2021/12/09 08:36:23;;;;;;;16.70;8.07;;;3.80;99.90;;;;;;5044909;28;20479;-46
2021/12/09 08:38:49;;;;;;;13.97;9.70;;;3.80;99.90;;;;;;5054086;28;20632;-47
2021/12/09 08:41:18;;;;;;;15.17;8.93;;;3.80;99.90;;;;;;5052778;28;20524;-47
2021/12/09 08:43:45;;;;;;;28.43;12.07;;;3.90;99.90;;;;;;5049989;28;20586;-47
2021/12/09 08:46:14;;;;;;;36.03;11.27;;;3.90;99.90;;;;;;5046950;28;20489;-47
2021/12/09 08:48:41;;;;;;;25.47;12.67;;;3.90;99.90;;;;;;5054566;28;20804;-47
2021/12/09 08:51:07;;;;;;;24.47;11.83;;;3.90;99.90;;;;;;5065980;28;20480;-47
2021/12/09 08:53:36;;;;;;;15.80;8.37;;;3.80;99.90;;;;;;5058466;28;20508;-47
2021/12/09 08:56:03;;;;;;;11.03;7.23;;;3.90;99.90;;;;;;5045989;28;20932;-47
2021/12/09 08:58:30;;;;;;;16.43;9.37;;;3.90;99.90;;;;;;5047123;28;20994;-46
2021/12/09 09:01:00;;;;;;;5.90;5.07;;;3.90;99.90;;;;;;5050270;28;20490;-46
2021/12/09 09:03:27;;;;;;;32.50;11.90;;;3.90;99.90;;;;;;5046457;28;20576;-46
2021/12/09 09:05:54;;;;;;;19.90;10.40;;;3.90;99.90;;;;;;5048479;28;20483;-46
2021/12/09 09:08:21;;;;;;;13.93;9.40;;;4.00;99.90;;;;;;5063406;28;20473;-46
2021/12/09 09:10:50;;;;;;;19.37;10.10;;;4.00;99.90;;;;;;5048666;28;20862;-46
2021/12/09 09:13:17;;;;;;;16.13;10.43;;;4.10;99.90;;;;;;5049504;28;20974;-47
2021/12/09 09:15:48;;;;;;;15.37;7.37;;;4.10;99.90;;;;;;5060854;28;20499;-47
2021/12/09 09:18:15;;;;;;;24.77;9.53;;;4.20;99.90;;;;;;5046373;28;20847;-47
2021/12/09 09:20:42;;;;;;;25.97;10.30;;;4.20;99.90;;;;;;5056972;28;20483;-46
2021/12/09 09:23:10;;;;;;;19.20;10.67;;;4.20;99.90;;;;;;5052750;28;21040;-46
2021/12/09 09:25:37;;;;;;;15.70;9.33;;;4.20;99.90;;;;;;5064064;28;20507;-46
2021/12/09 09:28:06;;;;;;;18.30;10.30;;;4.30;99.90;;;;;;5051319;28;20487;-47
2021/12/09 09:30:36;;;;;;;17.53;8.27;;;4.30;99.90;;;;;;5044275;28;20478;-47
2021/12/09 09:33:04;;;;;;;29.33;11.63;;;4.40;99.90;;;;;;5051942;28;20502;-47
2021/12/09 09:35:31;;;;;;;16.13;7.47;;;4.40;99.90;;;;;;5049805;28;20493;-46
2021/12/09 09:37:58;;;;;;;23.30;6.90;;;4.40;99.90;;;;;;5063328;28;20553;-47
2021/12/09 09:40:29;;;;;;;18.30;10.43;;;4.40;99.90;;;;;;5053770;28;21000;-47
2021/12/09 09:43:01;;;;;;;21.23;8.63;;;4.40;99.90;;;;;;5051888;28;20474;-47
2021/12/09 09:45:30;;;;;;;23.37;11.43;;;4.40;99.90;;;;;;5048048;28;21008;-46
2021/12/09 09:47:57;;;;;;;14.53;8.27;;;4.50;99.90;;;;;;5048662;28;20478;-46
2021/12/09 09:50:25;;;;;;;12.83;8.30;;;4.50;99.90;;;;;;5052084;28;21280;-46
2021/12/09 09:52:52;;;;;;;13.20;7.40;;;4.50;99.90;;;;;;5056004;28;20819;-46
2021/12/09 09:55:21;;;;;;;20.83;9.30;;;4.50;99.90;;;;;;5041704;28;20487;-47
2021/12/09 09:57:50;;;;;;;18.57;10.87;;;4.50;99.90;;;;;;5054399;28;20510;-47
2021/12/09 10:00:19;;;;;;;23.40;10.80;;;4.40;99.90;;;;;;5038306;28;20475;-47
2021/12/09 10:02:52;;;;;;;22.80;10.97;;;4.50;99.90;;;;;;4930002;28;20960;-46
2021/12/09 10:05:22;;;;;;;26.37;13.00;;;4.50;99.90;;;;;;5048927;28;20476;-46
2021/12/09 10:07:51;;;;;;;16.37;7.80;;;4.40;99.90;;;;;;5048410;28;20493;-46
2021/12/09 10:10:18;;;;;;;22.73;11.97;;;4.40;99.90;;;;;;5049085;28;20492;-47
2021/12/09 10:13:01;;;;;;;29.50;12.30;;;4.40;99.90;;;;;;5061697;28;20614;-47
2021/12/09 10:15:40;;;;;;;25.80;12.13;;;4.40;99.90;;;;;;5039100;28;20953;-47
2021/12/09 10:18:08;;;;;;;22.23;11.83;;;4.40;99.90;;;;;;5049660;28;20478;-47
2021/12/09 10:20:49;;;;;;;12.87;7.30;;;4.40;99.90;;;;;;5048925;28;21382;-47
2021/12/09 10:23:31;;;;;;;26.03;9.83;;;4.30;99.90;;;;;;5040976;28;20993;-46
2021/12/09 10:26:27;;;;;;;17.93;10.60;;;4.30;99.90;;;;;;5044610;28;20476;-46
2021/12/09 10:29:07;;;;;;;10.87;7.40;;;4.30;99.90;;;;;;5007317;28;20507;-46
2021/12/09 10:31:36;;;;;;;13.93;6.77;;;4.40;99.90;;;;;;5038476;28;20471;-51
2021/12/09 10:34:18;;;;;;;21.97;9.97;;;4.30;99.90;;;;;;5048960;28;21032;-46
2021/12/09 10:37:05;;;;;;;12.60;8.13;;;4.40;99.90;;;;;;5037305;28;20686;-46
2021/12/09 10:39:35;;;;;;;13.27;8.03;;;4.50;99.90;;;;;;5047125;28;20470;-46
2021/12/09 10:42:06;;;;;;;17.00;9.20;;;4.50;99.90;;;;;;5046260;28;20480;-46
2021/12/09 10:44:55;;;;;;;15.67;7.00;;;4.50;99.90;;;;;;5044932;28;20488;-46
2021/12/09 10:47:36;;;;;;;17.07;11.17;;;4.50;99.90;;;;;;5044405;28;20478;-46
2021/12/09 10:50:12;;;;;;;9.73;5.77;;;4.50;99.90;;;;;;5055775;28;20878;-46
2021/12/09 10:52:43;;;;;;;11.00;5.10;;;4.60;99.90;;;;;;5047280;28;20498;-46
2021/12/09 10:55:18;;;;;;;13.03;8.03;;;4.60;99.90;;;;;;5038033;28;21052;-48
2021/12/09 10:57:46;;;;;;;16.50;8.63;;;4.50;99.90;;;;;;5036264;28;20543;-47
2021/12/09 11:00:24;;;;;;;11.30;7.80;;;4.60;99.90;;;;;;5053402;28;20853;-48
2021/12/09 11:03:07;;;;;;;39.13;16.43;;;4.60;99.90;;;;;;5044644;28;20914;-47
2021/12/09 11:05:37;;;;;;;14.53;8.57;;;4.60;99.90;;;;;;5038905;28;20494;-46
2021/12/09 11:08:19;;;;;;;27.03;11.47;;;4.70;99.90;;;;;;5049333;28;20481;-46
2021/12/09 11:10:48;;;;;;;16.20;9.63;;;4.70;99.90;;;;;;5035864;28;20532;-47
2021/12/09 11:13:18;;;;;;;23.33;10.00;;;4.70;99.90;;;;;;5051471;28;21157;-47
2021/12/09 11:15:53;;;;;;;25.97;13.63;;;4.60;99.90;;;;;;5043655;28;20587;-46
2021/12/09 11:18:35;;;;;;;24.00;14.67;;;4.60;99.90;;;;;;5053375;28;20607;-47
2021/12/09 11:21:06;;;;;;;23.20;10.57;;;4.50;99.90;;;;;;5055262;28;20487;-47
2021/12/09 11:23:38;;;;;;;15.63;10.47;;;4.60;99.90;;;;;;5051188;28;20814;-46
2021/12/09 11:26:33;;;;;;;8.20;4.63;;;4.60;99.90;;;;;;5045484;28;20486;-47
2021/12/09 11:29:05;;;;;;;18.23;12.40;;;4.60;99.90;;;;;;5047906;28;20761;-47
2021/12/09 11:31:34;;;;;;;18.00;6.67;;;4.60;99.90;;;;;;5049721;28;20556;-46
2021/12/09 11:34:09;;;;;;;19.13;9.00;;;4.70;99.90;;;;;;5046791;28;20571;-46
2021/12/09 11:36:44;;;;;;;11.83;8.10;;;4.90;99.90;;;;;;5046366;28;20541;-47
2021/12/09 11:39:19;;;;;;;27.93;10.80;;;4.90;99.90;;;;;;5038056;28;20487;-47
2021/12/09 11:41:47;;;;;;;34.33;11.03;;;4.90;99.90;;;;;;5051647;28;20623;-47
2021/12/09 11:44:15;;;;;;;10.87;5.00;;;4.90;99.90;;;;;;5054095;28;21214;-47
2021/12/09 11:46:43;;;;;;;17.07;6.90;;;4.90;99.90;;;;;;5053736;28;20488;-47
2021/12/09 11:49:11;;;;;;;9.33;4.13;;;4.80;99.90;;;;;;5048919;28;20500;-47
2021/12/09 11:51:39;;;;;;;13.13;6.00;;;4.90;99.90;;;;;;5064991;28;20499;-47
2021/12/09 11:54:09;;;;;;;14.43;7.13;;;5.00;99.90;;;;;;5056898;28;20523;-46
2021/12/09 11:56:44;;;;;;;13.20;7.50;;;4.90;99.90;;;;;;5059025;28;20481;-46
2021/12/09 11:59:38;;;;;;;5.93;3.63;;;4.90;99.90;;;;;;5056046;28;21037;-47
2021/12/09 12:08:00;;;;;;;18.83;7.83;;;4.90;99.90;;;;;;5050395;28;20502;-46
2021/12/09 12:13:40;;;;;;;24.73;5.60;;;4.90;99.90;;;;;;5049261;28;20768;-47
2021/12/09 12:16:32;;;;;;;4.33;3.30;;;4.90;99.90;;;;;;5043553;28;20486;-47
2021/12/09 12:19:05;;;;;;;13.67;7.80;;;4.90;99.90;;;;;;5053690;28;20891;-47
2021/12/09 12:27:50;;;;;;;6.10;3.80;;;4.90;99.90;;;;;;5051517;28;20486;-47
2021/12/09 12:30:44;;;;;;;4.17;3.60;;;5.00;99.90;;;;;;5043378;28;20459;-47
2021/12/09 12:33:28;;;;;;;5.70;3.97;;;5.00;99.90;;;;;;5039654;28;20491;-47
2021/12/09 12:39:06;;;;;;;11.40;6.17;;;4.90;99.90;;;;;;5042574;28;20813;-47
2021/12/09 12:41:33;;;;;;;15.20;7.20;;;4.90;99.90;;;;;;5052641;28;20826;-48
2021/12/09 12:44:07;;;;;;;12.57;4.67;;;4.90;99.90;;;;;;5053237;28;20479;-46
2021/12/09 12:49:32;;;;;;;25.93;4.70;;;4.90;99.90;;;;;;5045807;28;20544;-47
2021/12/09 12:52:05;;;;;;;5.53;4.03;;;4.90;99.90;;;;;;5049418;28;20475;-47
2021/12/09 12:54:41;;;;;;;10.43;5.10;;;5.00;99.90;;;;;;5054387;28;21017;-47
2021/12/09 12:57:14;;;;;;;15.97;6.20;;;4.90;99.90;;;;;;5053435;28;20602;-48
2021/12/09 12:59:45;;;;;;;9.07;3.73;;;5.00;99.90;;;;;;5043277;28;20555;-47
2021/12/09 13:05:46;;;;;;;6.83;3.13;;;5.00;99.90;;;;;;5040910;28;20519;-48
2021/12/09 13:11:08;;;;;;;22.57;6.17;;;5.00;99.90;;;;;;5040186;28;21111;-47
2021/12/09 13:13:43;;;;;;;12.40;5.30;;;5.00;99.90;;;;;;5071648;28;20479;-47
2021/12/09 13:16:16;;;;;;;3.80;2.80;;;5.10;99.90;;;;;;5049649;28;20486;-47
2021/12/09 13:19:03;;;;;;;9.20;4.20;;;5.10;99.90;;;;;;5054171;28;20593;-47
2021/12/09 13:21:44;;;;;;;13.00;5.20;;;5.20;99.90;;;;;;5041984;28;20487;-47
2021/12/09 13:24:39;;;;;;;14.67;6.00;;;5.10;99.90;;;;;;5037865;28;21012;-48
2021/12/09 13:27:27;;;;;;;12.30;6.30;;;5.20;99.90;;;;;;5052866;28;20470;-47
2021/12/09 13:30:10;;;;;;;9.73;6.57;;;5.20;99.90;;;;;;5056456;28;21056;-47
2021/12/09 13:33:07;;;;;;;9.23;3.00;;;5.10;99.90;;;;;;5044865;28;20579;-47